createdAt,value
2023-05-17T00:00:59.574Z,9.6
2023-05-17T00:01:58.883Z,9.6
2023-05-17T00:02:58.949Z,9.6
2023-05-17T00:03:58.881Z,9.6
2023-05-17T00:04:59.025Z,9.5
2023-05-17T00:05:58.202Z,9.5
2023-05-17T00:06:59.267Z,9.5
2023-05-17T00:07:59.080Z,9.5
2023-05-17T00:08:58.922Z,9.4
2023-05-17T00:09:58.938Z,9.4
2023-05-17T00:10:58.335Z,9.4
2023-05-17T00:11:58.890Z,9.4
2023-05-17T00:12:58.885Z,9.4
2023-05-17T00:13:59.461Z,9.4
2023-05-17T00:14:58.946Z,9.4
2023-05-17T00:15:58.884Z,9.3
2023-05-17T00:16:58.995Z,9.3
2023-05-17T00:17:58.902Z,9.3
2023-05-17T00:18:58.940Z,9.3
2023-05-17T00:19:58.872Z,9.3
2023-05-17T00:20:59.168Z,9.3
2023-05-17T00:21:58.872Z,9.3
2023-05-17T00:22:59.349Z,9.3
2023-05-17T00:23:59.290Z,9.2
2023-05-17T00:24:59.762Z,9.3
2023-05-17T00:25:59.839Z,9.3
2023-05-17T00:26:58.887Z,9.3
2023-05-17T00:27:58.897Z,9.2
2023-05-17T00:28:58.899Z,9.2
2023-05-17T00:29:59.189Z,9.3
2023-05-17T00:30:59.204Z,9.2
2023-05-17T00:31:58.864Z,9.2
2023-05-17T00:32:58.899Z,9.2
2023-05-17T00:33:58.875Z,9.2
2023-05-17T00:34:58.904Z,9.2
2023-05-17T00:36:59.889Z,9.2
2023-05-17T00:37:59.570Z,9.2
2023-05-17T00:38:59.453Z,9.2
2023-05-17T00:39:58.874Z,9.2
2023-05-17T00:40:59.001Z,9.2
2023-05-17T00:41:58.886Z,9.2
2023-05-17T00:42:58.923Z,9.1
2023-05-17T00:43:58.879Z,9.1
2023-05-17T00:44:58.882Z,9.1
2023-05-17T00:45:58.897Z,9.1
2023-05-17T00:46:58.884Z,9.1
2023-05-17T00:47:59.057Z,9.1
2023-05-17T00:48:59.221Z,9.1
2023-05-17T00:49:58.900Z,9.1
2023-05-17T00:50:59.490Z,9.1
2023-05-17T00:51:58.877Z,9.1
2023-05-17T00:52:59.570Z,9.1
2023-05-17T00:54:58.886Z,9
2023-05-17T00:55:58.946Z,9
2023-05-17T00:56:58.971Z,9.1
2023-05-17T00:57:58.917Z,9
2023-05-17T00:58:58.876Z,9
2023-05-17T00:59:59.225Z,9
2023-05-17T01:00:58.909Z,9
2023-05-17T01:01:59.354Z,9
2023-05-17T01:02:58.936Z,9
2023-05-17T01:03:58.945Z,8.9
2023-05-17T01:04:59.155Z,8.9
2023-05-17T01:05:58.337Z,8.9
2023-05-17T01:06:58.902Z,8.8
2023-05-17T01:07:58.900Z,8.8
2023-05-17T01:08:59.272Z,8.8
2023-05-17T01:09:59.360Z,8.8
2023-05-17T01:10:59.629Z,8.8
2023-05-17T01:11:59.568Z,8.8
2023-05-17T01:12:59.326Z,8.8
2023-05-17T01:13:58.914Z,8.8
2023-05-17T01:14:59.185Z,8.8
2023-05-17T01:15:58.906Z,8.8
2023-05-17T01:16:58.891Z,8.8
2023-05-17T01:17:59.257Z,8.7
2023-05-17T01:18:59.160Z,8.7
2023-05-17T01:19:59.030Z,8.7
2023-05-17T01:21:59.516Z,8.6
2023-05-17T01:22:58.906Z,8.6
2023-05-17T01:23:58.890Z,8.6
2023-05-17T01:24:58.961Z,8.6
2023-05-17T01:25:58.887Z,8.6
2023-05-17T01:26:58.882Z,8.6
2023-05-17T01:27:58.901Z,8.6
2023-05-17T01:28:58.879Z,8.6
2023-05-17T01:29:59.849Z,8.6
2023-05-17T01:30:58.975Z,8.5
2023-05-17T01:31:59.488Z,8.5
2023-05-17T01:32:58.993Z,8.6
2023-05-17T01:33:59.179Z,8.5
2023-05-17T01:34:59.426Z,8.5
2023-05-17T01:36:58.898Z,8.5
2023-05-17T01:37:58.891Z,8.5
2023-05-17T01:38:59.224Z,8.5
2023-05-17T01:39:58.946Z,8.5
2023-05-17T01:40:58.866Z,8.5
2023-05-17T01:41:58.905Z,8.4
2023-05-17T01:42:59.545Z,8.4
2023-05-17T01:43:58.929Z,8.4
2023-05-17T01:44:58.913Z,8.4
2023-05-17T01:45:58.893Z,8.4
2023-05-17T01:46:59.855Z,8.4
2023-05-17T01:47:58.969Z,8.4
2023-05-17T01:48:59.347Z,8.4
2023-05-17T01:49:59.467Z,8.4
2023-05-17T01:50:58.930Z,8.4
2023-05-17T01:51:59.352Z,8.4
2023-05-17T01:52:58.882Z,8.4
2023-05-17T01:53:59.606Z,8.3
2023-05-17T01:54:59.137Z,8.4
2023-05-17T01:55:59.063Z,8.4
2023-05-17T01:57:58.882Z,8.4
2023-05-17T01:58:58.950Z,8.4
2023-05-17T01:59:58.900Z,8.3
2023-05-17T02:00:58.989Z,8.3
2023-05-17T02:01:59.497Z,8.3
2023-05-17T02:02:59.688Z,8.3
2023-05-17T02:03:58.962Z,8.4
2023-05-17T02:04:59.477Z,8.4
2023-05-17T02:05:58.607Z,8.4
2023-05-17T02:06:58.894Z,8.4
2023-05-17T02:07:58.892Z,8.4
2023-05-17T02:08:59.157Z,8.3
2023-05-17T02:09:59.355Z,8.3
2023-05-17T02:10:58.896Z,8.3
2023-05-17T02:11:59.638Z,8.3
2023-05-17T02:12:58.884Z,8.2
2023-05-17T02:13:59.412Z,8.2
2023-05-17T02:14:59.420Z,8.2
2023-05-17T02:15:58.881Z,8.1
2023-05-17T02:16:59.131Z,8.1
2023-05-17T02:17:59.686Z,8.1
2023-05-17T02:18:58.946Z,8.1
2023-05-17T02:19:59.277Z,8
2023-05-17T02:20:59.667Z,8.1
2023-05-17T02:21:58.881Z,8.1
2023-05-17T02:22:57.972Z,8.1
2023-05-17T02:23:59.633Z,8.1
2023-05-17T02:24:59.610Z,8
2023-05-17T02:25:58.886Z,8
2023-05-17T02:26:58.908Z,8
2023-05-17T02:27:58.890Z,8
2023-05-17T02:28:58.891Z,7.9
2023-05-17T02:29:58.922Z,8
2023-05-17T02:30:58.991Z,8
2023-05-17T02:31:58.964Z,8
2023-05-17T02:32:58.950Z,7.9
2023-05-17T02:33:59.738Z,7.9
2023-05-17T02:34:59.414Z,7.9
2023-05-17T02:35:58.605Z,7.9
2023-05-17T02:36:59.630Z,7.9
2023-05-17T02:37:58.885Z,7.9
2023-05-17T02:38:59.541Z,7.9
2023-05-17T02:39:58.892Z,7.8
2023-05-17T02:40:58.290Z,7.8
2023-05-17T02:41:58.911Z,7.9
2023-05-17T02:42:59.086Z,7.8
2023-05-17T02:43:58.907Z,7.9
2023-05-17T02:44:58.891Z,7.9
2023-05-17T02:45:59.508Z,7.9
2023-05-17T02:46:58.927Z,7.9
2023-05-17T02:48:59.112Z,7.8
2023-05-17T02:49:59.094Z,7.8
2023-05-17T02:50:58.886Z,7.8
2023-05-17T02:51:59.489Z,7.8
2023-05-17T02:52:59.441Z,7.8
2023-05-17T02:53:58.898Z,7.7
2023-05-17T02:54:58.910Z,7.7
2023-05-17T02:55:58.898Z,7.7
2023-05-17T02:56:58.875Z,7.7
2023-05-17T02:57:58.882Z,7.7
2023-05-17T02:58:59.024Z,7.7
2023-05-17T02:59:59.317Z,7.7
2023-05-17T03:00:59.232Z,7.7
2023-05-17T03:01:58.894Z,7.7
2023-05-17T03:02:59.097Z,7.6
2023-05-17T03:03:59.651Z,7.6
2023-05-17T03:04:59.110Z,7.6
2023-05-17T03:05:57.957Z,7.6
2023-05-17T03:06:59.054Z,7.6
2023-05-17T03:07:58.885Z,7.5
2023-05-17T03:08:58.890Z,7.5
2023-05-17T03:09:58.894Z,7.5
2023-05-17T03:10:58.890Z,7.5
2023-05-17T03:11:59.753Z,7.5
2023-05-17T03:12:59.757Z,7.4
2023-05-17T03:13:59.685Z,7.4
2023-05-17T03:14:59.494Z,7.4
2023-05-17T03:15:58.893Z,7.4
2023-05-17T03:16:59.609Z,7.4
2023-05-17T03:17:58.988Z,7.4
2023-05-17T03:18:59.205Z,7.3
2023-05-17T03:19:58.887Z,7.3
2023-05-17T03:20:59.645Z,7.3
2023-05-17T03:21:58.903Z,7.3
2023-05-17T03:22:59.271Z,7.3
2023-05-17T03:23:58.911Z,7.3
2023-05-17T03:24:58.919Z,7.3
2023-05-17T03:25:59.428Z,7.3
2023-05-17T03:26:58.874Z,7.2
2023-05-17T03:27:58.884Z,7.2
2023-05-17T03:28:58.970Z,7.2
2023-05-17T03:29:59.419Z,7.2
2023-05-17T03:30:59.781Z,7.2
2023-05-17T03:31:58.877Z,7.2
2023-05-17T03:32:59.540Z,7.2
2023-05-17T03:33:58.929Z,7.2
2023-05-17T03:34:59.097Z,7.2
2023-05-17T03:35:58.662Z,7.2
2023-05-17T03:36:58.881Z,7.2
2023-05-17T03:37:58.885Z,7.2
2023-05-17T03:38:59.001Z,7.2
2023-05-17T03:39:58.887Z,7.1
2023-05-17T03:40:58.903Z,7.1
2023-05-17T03:41:59.470Z,7.1
2023-05-17T03:42:59.619Z,7.1
2023-05-17T03:43:58.873Z,7.1
2023-05-17T03:44:58.897Z,7.1
2023-05-17T03:45:59.824Z,7.1
2023-05-17T03:46:58.882Z,7.2
2023-05-17T03:47:58.975Z,7.2
2023-05-17T03:48:59.527Z,7.2
2023-05-17T03:49:58.902Z,7.2
2023-05-17T03:50:59.399Z,7.2
2023-05-17T03:52:58.906Z,7.1
2023-05-17T03:53:59.587Z,7.1
2023-05-17T03:54:59.230Z,7.2
2023-05-17T03:55:58.868Z,7.2
2023-05-17T03:56:58.918Z,7.2
2023-05-17T03:57:58.877Z,7.2
2023-05-17T03:58:59.230Z,7.1
2023-05-17T03:59:59.412Z,7.1
2023-05-17T04:00:59.095Z,7.2
2023-05-17T04:02:00.527Z,7.2
2023-05-17T04:02:59.390Z,7.2
2023-05-17T04:03:58.924Z,7.2
2023-05-17T04:04:58.915Z,7.1
2023-05-17T04:05:57.995Z,7.1
2023-05-17T04:06:58.901Z,7
2023-05-17T04:07:58.888Z,7.1
2023-05-17T04:08:58.891Z,7
2023-05-17T04:09:59.584Z,7
2023-05-17T04:10:59.141Z,6.9
2023-05-17T04:11:58.889Z,7
2023-05-17T04:12:59.837Z,7
2023-05-17T04:13:58.954Z,7
2023-05-17T04:14:59.680Z,7
2023-05-17T04:15:58.878Z,7
2023-05-17T04:16:59.559Z,7.1
2023-05-17T04:17:59.320Z,7.1
2023-05-17T04:18:58.927Z,7.1
2023-05-17T04:19:58.922Z,7.2
2023-05-17T04:20:59.538Z,7.2
2023-05-17T04:21:58.902Z,7.2
2023-05-17T04:22:59.500Z,7.1
2023-05-17T04:23:58.948Z,7.2
2023-05-17T04:24:58.889Z,7.1
2023-05-17T04:25:59.781Z,7.2
2023-05-17T04:26:59.453Z,7.2
2023-05-17T04:27:59.086Z,7.3
2023-05-17T04:28:58.917Z,7.3
2023-05-17T04:29:59.289Z,7.4
2023-05-17T04:30:58.891Z,7.4
2023-05-17T04:31:58.900Z,7.4
2023-05-17T04:32:59.039Z,7.4
2023-05-17T04:33:59.573Z,7.4
2023-05-17T04:34:58.903Z,7.4
2023-05-17T04:36:58.944Z,7.5
2023-05-17T04:37:58.900Z,7.5
2023-05-17T04:39:59.449Z,7.5
2023-05-17T04:40:58.877Z,7.6
2023-05-17T04:41:58.886Z,7.6
2023-05-17T04:42:58.896Z,7.6
2023-05-17T04:43:58.894Z,7.7
2023-05-17T04:44:58.911Z,7.7
2023-05-17T04:45:59.526Z,7.7
2023-05-17T04:46:58.892Z,7.7
2023-05-17T04:47:59.004Z,7.8
2023-05-17T04:48:58.994Z,7.8
2023-05-17T04:49:59.566Z,7.9
2023-05-17T04:50:59.559Z,7.9
2023-05-17T04:51:58.901Z,7.9
2023-05-17T04:52:59.252Z,8
2023-05-17T04:54:59.414Z,8
2023-05-17T04:55:59.109Z,8
2023-05-17T04:56:58.945Z,8.1
2023-05-17T04:57:58.885Z,8.1
2023-05-17T04:58:59.224Z,8.1
2023-05-17T04:59:58.903Z,8.1
2023-05-17T05:00:59.319Z,8.1
2023-05-17T05:01:53.518Z,8.1
2023-05-17T05:02:59.076Z,8.1
2023-05-17T05:03:58.971Z,8.2
2023-05-17T05:04:58.955Z,8.2
2023-05-17T05:05:57.977Z,8.3
2023-05-17T05:06:59.136Z,8.4
2023-05-17T05:07:58.884Z,8.4
2023-05-17T05:08:59.440Z,8.5
2023-05-17T05:09:58.889Z,8.6
2023-05-17T05:10:57.959Z,8.6
2023-05-17T05:11:58.905Z,8.6
2023-05-17T05:12:58.909Z,8.6
2023-05-17T05:13:59.407Z,8.6
2023-05-17T05:15:00.993Z,8.7
2023-05-17T05:15:59.278Z,8.7
2023-05-17T05:16:58.892Z,8.7
2023-05-17T05:17:58.949Z,8.8
2023-05-17T05:18:59.134Z,8.7
2023-05-17T05:19:59.004Z,8.8
2023-05-17T05:20:58.917Z,8.8
2023-05-17T05:21:58.884Z,8.8
2023-05-17T05:22:58.907Z,8.9
2023-05-17T05:23:59.487Z,8.9
2023-05-17T05:24:59.421Z,9
2023-05-17T05:25:59.194Z,9
2023-05-17T05:26:59.138Z,9
2023-05-17T05:27:58.959Z,9
2023-05-17T05:28:58.875Z,9.1
2023-05-17T05:29:58.941Z,9.1
2023-05-17T05:30:58.882Z,9.1
2023-05-17T05:31:58.884Z,9.1
2023-05-17T05:32:59.638Z,9.1
2023-05-17T05:33:59.810Z,9.1
2023-05-17T05:34:59.414Z,9.1
2023-05-17T05:35:58.499Z,9.1
2023-05-17T05:36:58.879Z,9.2
2023-05-17T05:37:59.056Z,9.2
2023-05-17T05:38:59.299Z,9.2
2023-05-17T05:39:58.910Z,9.3
2023-05-17T05:40:58.871Z,9.3
2023-05-17T05:41:59.772Z,9.4
2023-05-17T05:42:58.995Z,9.4
2023-05-17T05:43:59.390Z,9.4
2023-05-17T05:44:58.885Z,9.4
2023-05-17T05:45:59.524Z,9.4
2023-05-17T05:46:58.912Z,9.4
2023-05-17T05:47:58.935Z,9.4
2023-05-17T05:48:59.010Z,9.5
2023-05-17T05:49:58.884Z,9.5
2023-05-17T05:50:58.880Z,9.5
2023-05-17T05:51:59.524Z,9.5
2023-05-17T05:53:07.095Z,9.6
2023-05-17T05:53:59.188Z,9.5
2023-05-17T05:54:58.904Z,9.5
2023-05-17T05:55:58.887Z,9.5
2023-05-17T05:56:58.877Z,9.5
2023-05-17T05:57:58.921Z,9.4
2023-05-17T05:58:58.898Z,9.4
2023-05-17T05:59:58.899Z,9.4
2023-05-17T06:00:58.894Z,9.5
2023-05-17T06:02:59.765Z,9.5
2023-05-17T06:03:59.238Z,9.4
2023-05-17T06:04:59.893Z,9.4
2023-05-17T06:06:58.998Z,9.4
2023-05-17T06:07:59.581Z,9.4
2023-05-17T06:08:59.738Z,9.4
2023-05-17T06:09:59.687Z,9.5
2023-05-17T06:10:59.131Z,9.4
2023-05-17T06:11:58.906Z,9.4
2023-05-17T06:15:57.982Z,9.4
2023-05-17T06:17:05.813Z,9.4
2023-05-17T06:18:58.032Z,9.4
2023-05-17T06:19:59.793Z,9.4
2023-05-17T06:20:58.897Z,9.4
2023-05-17T06:21:58.925Z,9.4
2023-05-17T06:22:58.905Z,9.4
2023-05-17T06:23:58.894Z,9.5
2023-05-17T06:24:59.116Z,9.5
2023-05-17T06:25:58.877Z,9.5
2023-05-17T06:26:58.941Z,9.5
2023-05-17T06:27:58.903Z,9.5
2023-05-17T06:28:59.314Z,9.5
2023-05-17T06:29:59.452Z,9.4
2023-05-17T06:30:58.882Z,9.5
2023-05-17T06:31:59.571Z,9.6
2023-05-17T06:33:58.958Z,9.7
2023-05-17T06:34:59.298Z,9.7
2023-05-17T06:35:58.578Z,9.7
2023-05-17T06:36:58.987Z,9.8
2023-05-17T06:37:58.899Z,9.9
2023-05-17T06:38:59.625Z,10
2023-05-17T06:40:00.277Z,10.2
2023-05-17T06:40:59.400Z,10.3
2023-05-17T06:41:59.987Z,10.5
2023-05-17T06:42:58.883Z,10.6
2023-05-17T06:44:58.904Z,10.9
2023-05-17T06:45:59.158Z,10.9
2023-05-17T06:46:59.275Z,10.9
2023-05-17T06:47:58.942Z,10.9
2023-05-17T06:48:59.210Z,10.8
2023-05-17T06:49:59.181Z,10.8
2023-05-17T06:50:58.898Z,10.8
2023-05-17T06:51:59.393Z,10.8
2023-05-17T06:52:59.045Z,10.7
2023-05-17T06:54:58.873Z,10.5
2023-05-17T06:55:59.808Z,10.7
2023-05-17T06:56:58.885Z,10.7
2023-05-17T06:57:58.894Z,10.8
2023-05-17T06:58:59.158Z,10.8
2023-05-17T06:59:58.900Z,10.6
2023-05-17T07:01:59.419Z,10.6
2023-05-17T07:02:58.968Z,10.7
2023-05-17T07:03:59.561Z,10.6
2023-05-17T07:04:58.973Z,10.6
2023-05-17T07:06:58.909Z,10.7
2023-05-17T07:07:59.788Z,10.8
2023-05-17T07:08:58.937Z,10.9
2023-05-17T07:09:58.887Z,10.9
2023-05-17T07:10:58.882Z,10.8
2023-05-17T07:11:59.522Z,11
2023-05-17T07:12:58.894Z,11.2
2023-05-17T07:13:59.614Z,11.2
2023-05-17T07:15:59.063Z,11.6
2023-05-17T07:16:58.903Z,11.6
2023-05-17T07:17:58.976Z,11.7
2023-05-17T07:18:59.751Z,11.8
2023-05-17T07:19:59.007Z,11.6
2023-05-17T07:20:59.232Z,11.7
2023-05-17T07:21:58.906Z,11.8
2023-05-17T07:22:59.076Z,11.9
2023-05-17T07:23:59.623Z,11.9
2023-05-17T07:24:58.898Z,12
2023-05-17T07:25:58.964Z,11.9
2023-05-17T07:26:59.371Z,11.9
2023-05-17T07:27:58.928Z,11.9
2023-05-17T07:28:59.049Z,11.9
2023-05-17T07:29:59.417Z,11.9
2023-05-17T07:30:59.530Z,12
2023-05-17T07:31:58.918Z,12.2
2023-05-17T07:32:58.957Z,12.5
2023-05-17T07:33:59.498Z,12.6
2023-05-17T07:34:58.982Z,12.8
2023-05-17T07:36:58.909Z,12.7
2023-05-17T07:37:58.896Z,12.4
2023-05-17T07:38:59.089Z,12.3
2023-05-17T07:39:58.904Z,12.2
2023-05-17T07:40:58.774Z,12
2023-05-17T07:41:58.882Z,11.8
2023-05-17T07:42:58.908Z,11.7
2023-05-17T07:43:58.903Z,11.8
2023-05-17T07:44:58.901Z,11.6
2023-05-17T07:45:58.907Z,11.6
2023-05-17T07:46:59.813Z,11.7
2023-05-17T07:47:59.115Z,12
2023-05-17T07:48:59.273Z,12.1
2023-05-17T07:49:59.820Z,12.1
2023-05-17T07:51:59.066Z,12
2023-05-17T07:52:58.950Z,12
2023-05-17T07:53:59.716Z,11.9
2023-05-17T07:54:59.521Z,12
2023-05-17T07:55:59.685Z,11.9
2023-05-17T07:56:58.910Z,11.8
2023-05-17T07:57:58.890Z,11.9
2023-05-17T07:58:58.902Z,11.9
2023-05-17T07:59:58.975Z,12.1
2023-05-17T08:00:58.902Z,12
2023-05-17T08:01:58.918Z,12.1
2023-05-17T08:02:59.021Z,12.2
2023-05-17T08:03:59.288Z,12.2
2023-05-17T08:04:58.938Z,12.2
2023-05-17T08:06:59.312Z,12.1
2023-05-17T08:07:58.918Z,12.1
2023-05-17T08:08:59.209Z,12.1
2023-05-17T08:09:58.938Z,12.3
2023-05-17T08:10:58.926Z,12.2
2023-05-17T08:11:58.905Z,12
2023-05-17T08:12:58.898Z,11.9
2023-05-17T08:13:59.342Z,11.7
2023-05-17T08:14:58.916Z,11.6
2023-05-17T08:16:05.278Z,11.7
2023-05-17T08:16:58.917Z,11.8
2023-05-17T08:18:58.990Z,11.8
2023-05-17T08:19:59.018Z,12
2023-05-17T08:21:58.911Z,12.1
2023-05-17T08:22:59.289Z,12.1
2023-05-17T08:24:58.890Z,11.9
2023-05-17T08:25:58.896Z,12
2023-05-17T08:26:58.923Z,11.9
2023-05-17T08:27:58.912Z,11.9
2023-05-17T08:28:58.903Z,11.8
2023-05-17T08:29:59.754Z,11.7
2023-05-17T08:30:59.714Z,11.7
2023-05-17T08:31:58.888Z,11.8
2023-05-17T08:32:59.007Z,12.1
2023-05-17T08:34:00.093Z,12.3
2023-05-17T08:34:59.137Z,12.3
2023-05-17T08:36:59.657Z,12.1
2023-05-17T08:37:58.892Z,12.1
2023-05-17T08:38:58.912Z,12.1
2023-05-17T08:39:58.940Z,12
2023-05-17T08:40:59.408Z,12.2
2023-05-17T08:42:58.923Z,12.5
2023-05-17T08:43:59.634Z,12.4
2023-05-17T08:44:58.386Z,12.5
2023-05-17T08:45:58.895Z,12.6
2023-05-17T08:46:59.395Z,12.6
2023-05-17T08:47:58.997Z,12.7
2023-05-17T08:48:58.932Z,12.8
2023-05-17T08:49:58.902Z,12.7
2023-05-17T08:50:58.908Z,12.6
2023-05-17T08:51:58.901Z,12.5
2023-05-17T08:52:59.082Z,12.4
2023-05-17T08:53:58.905Z,12.3
2023-05-17T08:54:58.909Z,12.4
2023-05-17T08:55:58.895Z,12.3
2023-05-17T08:56:59.274Z,12.5
2023-05-17T08:57:58.916Z,12.9
2023-05-17T08:58:58.941Z,12.8
2023-05-17T09:00:59.291Z,13
2023-05-17T09:01:58.904Z,13.1
2023-05-17T09:02:59.023Z,13.3
2023-05-17T09:03:58.978Z,13.2
2023-05-17T09:04:59.573Z,13.2
2023-05-17T09:06:58.915Z,13.4
2023-05-17T09:07:58.893Z,13.3
2023-05-17T09:08:59.627Z,13.3
2023-05-17T09:09:58.888Z,13.2
2023-05-17T09:10:58.910Z,13.5
2023-05-17T09:11:59.080Z,13.8
2023-05-17T09:12:58.906Z,13.7
2023-05-17T09:13:59.837Z,13.8
2023-05-17T09:14:58.899Z,13.8
2023-05-17T09:15:58.903Z,13.8
2023-05-17T09:16:58.894Z,13.6
2023-05-17T09:18:59.033Z,14
2023-05-17T09:19:59.141Z,14.2
2023-05-17T09:20:58.909Z,14.2
2023-05-17T09:21:58.901Z,14.2
2023-05-17T09:22:58.923Z,14.1
2023-05-17T09:24:06.448Z,14.2
2023-05-17T09:24:59.415Z,14.3
2023-05-17T09:25:58.898Z,14.5
2023-05-17T09:26:58.923Z,14.3
2023-05-17T09:27:58.919Z,14.4
2023-05-17T09:28:58.918Z,14.4
2023-05-17T09:29:59.586Z,14.3
2023-05-17T09:30:59.443Z,14.2
2023-05-17T09:31:59.501Z,14
2023-05-17T09:32:59.617Z,14.2
2023-05-17T09:33:59.014Z,14.3
2023-05-17T09:34:59.310Z,14.7
2023-05-17T09:35:57.974Z,14.3
2023-05-17T09:36:58.928Z,14.4
2023-05-17T09:37:59.172Z,14.6
2023-05-17T09:38:59.693Z,14.5
2023-05-17T09:39:58.912Z,14.4
2023-05-17T09:40:58.907Z,14.4
2023-05-17T09:41:58.907Z,14.4
2023-05-17T09:42:58.912Z,14.6
2023-05-17T09:43:58.910Z,14.6
2023-05-17T09:44:58.910Z,14.5
2023-05-17T09:45:59.273Z,14.6
2023-05-17T09:46:59.817Z,14.6
2023-05-17T09:48:59.942Z,14.6
2023-05-17T09:49:59.008Z,14.6
2023-05-17T09:50:58.931Z,14.8
2023-05-17T09:51:58.902Z,14.7
2023-05-17T09:52:58.938Z,14.5
2023-05-17T09:54:59.243Z,14.2
2023-05-17T09:55:59.731Z,14.1
2023-05-17T09:56:58.911Z,13.9
2023-05-17T09:57:59.211Z,13.8
2023-05-17T09:58:59.084Z,13.8
2023-05-17T09:59:58.902Z,13.9
2023-05-17T10:00:58.976Z,14.2
2023-05-17T10:01:58.952Z,14
2023-05-17T10:02:59.050Z,14.1
2023-05-17T10:03:59.306Z,14
2023-05-17T10:04:59.491Z,13.9
2023-05-17T10:05:58.128Z,14
2023-05-17T10:06:58.911Z,13.9
2023-05-17T10:07:58.920Z,13.9
2023-05-17T10:08:59.314Z,13.8
2023-05-17T10:09:58.927Z,14
2023-05-17T10:10:58.907Z,13.9
2023-05-17T10:11:59.080Z,14
2023-05-17T10:12:58.899Z,14
2023-05-17T10:14:58.959Z,14.3
2023-05-17T10:15:59.272Z,14.5
2023-05-17T10:16:59.425Z,14.3
2023-05-17T10:17:58.926Z,14
2023-05-17T10:18:59.066Z,14
2023-05-17T10:19:59.837Z,13.7
2023-05-17T10:22:08.372Z,13.9
2023-05-17T10:22:58.937Z,14
2023-05-17T10:23:58.908Z,13.9
2023-05-17T10:24:59.023Z,13.9
2023-05-17T10:25:59.075Z,13.9
2023-05-17T10:27:59.726Z,14.1
2023-05-17T10:28:59.307Z,14.1
2023-05-17T10:30:58.912Z,13.9
2023-05-17T10:31:58.905Z,14
2023-05-17T10:32:59.086Z,14.1
2023-05-17T10:33:58.959Z,14.1
2023-05-17T10:35:10.469Z,14.1
2023-05-17T10:35:58.286Z,14.3
2023-05-17T10:36:58.955Z,14.5
2023-05-17T10:37:59.261Z,14.5
2023-05-17T10:38:59.080Z,14.6
2023-05-17T10:39:58.944Z,14.8
2023-05-17T10:41:00.444Z,14.9
2023-05-17T10:42:13.429Z,14.9
2023-05-17T10:42:59.818Z,14.9
2023-05-17T10:43:58.917Z,15
2023-05-17T10:44:59.406Z,15
2023-05-17T10:45:59.446Z,14.8
2023-05-17T10:46:59.370Z,15
2023-05-17T10:48:00.915Z,15.3
2023-05-17T10:48:58.943Z,15.3
2023-05-17T10:49:58.940Z,15.4
2023-05-17T10:51:01.759Z,15.3
2023-05-17T10:51:58.924Z,15.4
2023-05-17T10:52:58.976Z,15.1
2023-05-17T10:53:59.742Z,14.8
2023-05-17T10:54:58.917Z,14.8
2023-05-17T10:55:59.590Z,14.8
2023-05-17T10:56:59.481Z,14.8
2023-05-17T10:57:59.291Z,15.1
2023-05-17T10:58:58.925Z,15.5
2023-05-17T10:59:59.456Z,15.6
2023-05-17T11:00:59.655Z,15.4
2023-05-17T11:01:58.959Z,15.2
2023-05-17T11:02:58.929Z,15.1
2023-05-17T11:04:59.460Z,15.2
2023-05-17T11:06:58.917Z,15
2023-05-17T11:07:58.932Z,15.1
2023-05-17T11:08:59.526Z,15.4
2023-05-17T11:09:58.913Z,15.5
2023-05-17T11:10:59.164Z,15.4
2023-05-17T11:11:58.906Z,15.3
2023-05-17T11:12:59.789Z,15.3
2023-05-17T11:13:58.932Z,15.3
2023-05-17T11:14:57.979Z,15.4
2023-05-17T11:15:59.034Z,15.5
2023-05-17T11:16:59.485Z,15.9
2023-05-17T11:18:59.284Z,15.6
2023-05-17T11:19:59.042Z,15.6
2023-05-17T11:20:59.651Z,15.4
2023-05-17T11:21:59.804Z,15.2
2023-05-17T11:22:59.064Z,15.2
2023-05-17T11:23:59.534Z,15.4
2023-05-17T11:24:59.594Z,15.6
2023-05-17T11:26:59.595Z,15.8
2023-05-17T11:27:58.959Z,15.9
2023-05-17T11:28:59.137Z,16
2023-05-17T11:29:59.406Z,16
2023-05-17T11:30:58.911Z,16.1
2023-05-17T11:31:59.305Z,15.9
2023-05-17T11:32:58.954Z,15.9
2023-05-17T11:33:59.008Z,15.8
2023-05-17T11:34:58.906Z,15.6
2023-05-17T11:36:58.935Z,15.6
2023-05-17T11:37:58.995Z,15.8
2023-05-17T11:39:58.972Z,15.7
2023-05-17T11:40:59.276Z,16
2023-05-17T11:41:58.920Z,15.8
2023-05-17T11:42:59.395Z,15.5
2023-05-17T11:43:59.878Z,15.4
2023-05-17T11:44:58.952Z,15.3
2023-05-17T11:45:59.321Z,15.3
2023-05-17T11:46:58.916Z,15.4
2023-05-17T11:47:59.146Z,15.3
2023-05-17T11:48:58.926Z,15.4
2023-05-17T11:49:58.924Z,15.5
2023-05-17T11:51:01.395Z,15.5
2023-05-17T11:51:58.933Z,15.3
2023-05-17T11:52:59.213Z,15.2
2023-05-17T11:53:58.932Z,15.4
2023-05-17T11:54:58.917Z,15.5
2023-05-17T11:55:58.932Z,15.9
2023-05-17T11:56:59.572Z,15.9
2023-05-17T11:57:59.367Z,15.9
2023-05-17T11:58:58.956Z,16
2023-05-17T11:59:58.923Z,16.3
2023-05-17T12:00:59.005Z,15.7
2023-05-17T12:01:59.254Z,15.5
2023-05-17T12:02:58.984Z,15.4
2023-05-17T12:03:58.946Z,15.4
2023-05-17T12:05:58.021Z,15.2
2023-05-17T12:06:58.951Z,15.2
2023-05-17T12:07:58.956Z,15.2
2023-05-17T12:08:58.929Z,15.3
2023-05-17T12:09:58.971Z,15.4
2023-05-17T12:10:58.948Z,15.5
2023-05-17T12:11:58.975Z,15.5
2023-05-17T12:12:59.157Z,15.4
2023-05-17T12:13:58.973Z,15.3
2023-05-17T12:14:58.917Z,15.4
2023-05-17T12:15:58.940Z,15.3
2023-05-17T12:16:58.931Z,15.4
2023-05-17T12:17:59.302Z,15.5
2023-05-17T12:18:59.194Z,15.5
2023-05-17T12:19:59.000Z,15.3
2023-05-17T12:20:58.947Z,15.2
2023-05-17T12:21:58.915Z,15.4
2023-05-17T12:22:58.933Z,15.6
2023-05-17T12:23:58.930Z,15.6
2023-05-17T12:24:58.946Z,15.8
2023-05-17T12:25:58.923Z,15.5
2023-05-17T12:26:58.942Z,15.2
2023-05-17T12:27:59.822Z,15.1
2023-05-17T12:28:58.952Z,15.1
2023-05-17T12:29:59.542Z,15.3
2023-05-17T12:30:58.936Z,15.5
2023-05-17T12:31:58.957Z,15.7
2023-05-17T12:32:59.780Z,15.8
2023-05-17T12:33:58.975Z,15.8
2023-05-17T12:34:58.930Z,15.6
2023-05-17T12:35:57.999Z,15.4
2023-05-17T12:36:58.930Z,15.5
2023-05-17T12:37:58.928Z,15.7
2023-05-17T12:38:59.193Z,16.1
2023-05-17T12:39:58.945Z,15.7
2023-05-17T12:40:58.940Z,15.5
2023-05-17T12:41:59.248Z,15.6
2023-05-17T12:42:53.699Z,15.8
2023-05-17T12:44:13.689Z,15.8
2023-05-17T12:44:58.959Z,15.9
2023-05-17T12:45:59.161Z,16
2023-05-17T12:46:58.909Z,16.1
2023-05-17T12:47:58.966Z,16.3
2023-05-17T12:48:59.922Z,16.1
2023-05-17T12:49:59.200Z,16.1
2023-05-17T12:50:58.931Z,15.8
2023-05-17T12:51:58.931Z,15.7
2023-05-17T12:52:59.382Z,15.7
2023-05-17T12:53:58.924Z,15.5
2023-05-17T12:54:58.950Z,15.7
2023-05-17T12:55:59.545Z,15.9
2023-05-17T12:56:59.625Z,16
2023-05-17T12:57:59.558Z,16
2023-05-17T12:58:59.456Z,16.1
2023-05-17T13:00:58.924Z,15.8
2023-05-17T13:01:58.927Z,15.8
2023-05-17T13:02:59.453Z,16
2023-05-17T13:03:59.527Z,15.8
2023-05-17T13:04:58.962Z,15.7
2023-05-17T13:06:58.938Z,15.6
2023-05-17T13:07:58.941Z,15.6
2023-05-17T13:08:58.936Z,15.6
2023-05-17T13:09:58.947Z,15.5
2023-05-17T13:11:58.957Z,15.4
2023-05-17T13:12:58.940Z,15.3
2023-05-17T13:13:59.505Z,15.4
2023-05-17T13:14:58.975Z,15.4
2023-05-17T13:15:58.921Z,15.3
2023-05-17T13:16:59.038Z,15.2
2023-05-17T13:17:59.056Z,15.3
2023-05-17T13:18:59.033Z,15.5
2023-05-17T13:19:59.728Z,15.6
2023-05-17T13:20:58.957Z,15.5
2023-05-17T13:21:59.086Z,15.6
2023-05-17T13:22:58.948Z,15.7
2023-05-17T13:24:59.093Z,15.9
2023-05-17T13:26:59.235Z,15.8
2023-05-17T13:27:58.920Z,16
2023-05-17T13:28:58.922Z,16.2
2023-05-17T13:34:05.581Z,15.9
2023-05-17T13:35:06.085Z,15.8
2023-05-17T13:35:58.032Z,15.8
2023-05-17T13:36:58.952Z,15.8
2023-05-17T13:37:59.071Z,15.9
2023-05-17T13:38:58.940Z,15.7
2023-05-17T13:39:58.967Z,15.7
2023-05-17T13:40:59.074Z,15.6
2023-05-17T13:43:58.935Z,15.6
2023-05-17T13:44:58.580Z,15.7
2023-05-17T13:45:59.576Z,15.6
2023-05-17T13:46:58.931Z,15.5
2023-05-17T13:47:59.291Z,15.5
2023-05-17T13:48:59.019Z,15.6
2023-05-17T13:49:58.942Z,15.5
2023-05-17T13:50:59.194Z,15.4
2023-05-17T13:51:58.929Z,15.4
2023-05-17T13:53:59.001Z,15.3
2023-05-17T13:54:59.054Z,15.4
2023-05-17T13:55:59.192Z,15.4
2023-05-17T13:56:59.162Z,15.3
2023-05-17T13:57:59.501Z,15.4
2023-05-17T13:58:59.271Z,15.6
2023-05-17T13:59:59.457Z,16.1
2023-05-17T14:00:59.222Z,16.3
2023-05-17T14:01:58.954Z,16.3
2023-05-17T14:02:59.081Z,16
2023-05-17T14:03:59.077Z,15.7
2023-05-17T14:04:59.485Z,15.7
2023-05-17T14:06:59.801Z,16
2023-05-17T14:07:58.934Z,16.2
2023-05-17T14:08:58.949Z,16.2
2023-05-17T14:09:58.963Z,16.4
2023-05-17T14:10:59.859Z,16.3
2023-05-17T14:12:00.927Z,16.2
2023-05-17T14:12:58.965Z,16
2023-05-17T14:13:59.287Z,15.9
2023-05-17T14:14:58.953Z,16.1
2023-05-17T14:15:59.552Z,15.9
2023-05-17T14:16:59.277Z,15.9
2023-05-17T14:19:00.945Z,15.8
2023-05-17T14:19:59.023Z,15.7
2023-05-17T14:20:59.544Z,15.9
2023-05-17T14:22:00.296Z,16.2
2023-05-17T14:22:58.934Z,16.4
2023-05-17T14:23:58.986Z,16.5
2023-05-17T14:24:58.963Z,16.7
2023-05-17T14:25:58.937Z,16.7
2023-05-17T14:26:58.950Z,16.5
2023-05-17T14:27:58.957Z,16.4
2023-05-17T14:28:58.989Z,16.5
2023-05-17T14:29:59.740Z,16.5
2023-05-17T14:30:58.940Z,16.5
2023-05-17T14:31:59.034Z,16.5
2023-05-17T14:32:59.443Z,16.6
2023-05-17T14:33:59.050Z,16.6
2023-05-17T14:34:59.425Z,16.6
2023-05-17T14:36:58.967Z,16.8
2023-05-17T14:37:58.974Z,16.5